createdAt,value
2023-04-24T00:01:13.928Z,1.05
2023-04-24T00:03:16.890Z,1.05
2023-04-24T00:05:19.881Z,0.90
2023-04-24T00:07:22.693Z,1.02
2023-04-24T00:09:27.122Z,0.80
2023-04-24T00:11:29.992Z,0.80
2023-04-24T00:13:32.601Z,0.85
2023-04-24T00:15:35.295Z,1.10
2023-04-24T00:17:38.213Z,0.90
2023-04-24T00:19:41.294Z,0.77
2023-04-24T00:21:44.299Z,0.80
2023-04-24T00:23:47.268Z,0.73
2023-04-24T00:25:51.502Z,0.80
2023-04-24T00:27:54.291Z,0.73
2023-04-24T00:29:57.066Z,0.80
2023-04-24T00:32:00.040Z,1.10
2023-04-24T00:34:03.299Z,0.75
2023-04-24T00:36:06.838Z,0.90
2023-04-24T00:38:11.006Z,0.88
2023-04-24T00:40:14.001Z,0.90
2023-04-24T00:42:18.144Z,0.80
2023-04-24T00:44:20.990Z,0.82
2023-04-24T00:46:24.096Z,0.80
2023-04-24T00:48:27.507Z,0.70
2023-04-24T00:50:31.410Z,0.80
2023-04-24T00:52:34.248Z,0.93
2023-04-24T00:54:37.004Z,0.90
2023-04-24T00:56:39.788Z,0.70
2023-04-24T00:58:44.354Z,0.73
2023-04-24T01:00:48.229Z,0.65
2023-04-24T01:02:52.953Z,1.42
2023-04-24T01:04:56.017Z,0.85
2023-04-24T01:06:59.023Z,0.70
2023-04-24T01:09:02.300Z,0.70
2023-04-24T01:11:06.606Z,0.80
2023-04-24T01:13:10.096Z,0.70
2023-04-24T01:15:14.132Z,0.80
2023-04-24T01:17:16.826Z,0.90
2023-04-24T01:19:21.085Z,0.70
2023-04-24T01:21:25.490Z,0.88
2023-04-24T01:23:29.552Z,0.80
2023-04-24T01:25:32.862Z,0.80
2023-04-24T01:27:35.531Z,0.70
2023-04-24T01:29:38.519Z,0.90
2023-04-24T01:31:41.660Z,0.80
2023-04-24T01:33:44.793Z,0.80
2023-04-24T01:35:47.725Z,0.80
2023-04-24T01:37:50.357Z,0.80
2023-04-24T01:39:54.431Z,0.82
2023-04-24T01:41:57.959Z,0.80
2023-04-24T01:44:00.637Z,0.73
2023-04-24T01:46:03.687Z,0.85
2023-04-24T01:48:07.156Z,0.73
2023-04-24T01:50:11.239Z,0.70
2023-04-24T01:52:13.844Z,0.75
2023-04-24T01:54:16.490Z,0.80
2023-04-24T01:56:21.727Z,1.27
2023-04-24T01:58:24.888Z,0.80
2023-04-24T02:00:27.723Z,1.10
2023-04-24T02:02:31.087Z,0.73
2023-04-24T02:04:34.022Z,0.73
2023-04-24T02:06:36.997Z,0.80
2023-04-24T02:08:39.617Z,1.02
2023-04-24T02:10:42.261Z,0.80
2023-04-24T02:12:46.276Z,0.65
2023-04-24T02:14:48.918Z,0.90
2023-04-24T02:16:51.662Z,0.90
2023-04-24T02:18:54.439Z,0.82
2023-04-24T02:20:57.097Z,0.93
2023-04-24T02:22:59.708Z,0.70
2023-04-24T02:25:02.625Z,0.85
2023-04-24T02:27:05.897Z,1.17
2023-04-24T02:29:09.883Z,0.93
2023-04-24T02:31:12.799Z,1.10
2023-04-24T02:33:15.697Z,0.70
2023-04-24T02:35:18.430Z,0.70
2023-04-24T02:37:21.221Z,0.90
2023-04-24T02:39:24.150Z,0.95
2023-04-24T02:41:32.198Z,0.77
2023-04-24T02:43:35.155Z,0.73
2023-04-24T02:45:39.575Z,0.70
2023-04-24T02:47:42.315Z,0.80
2023-04-24T02:49:45.147Z,1.35
2023-04-24T02:51:47.901Z,0.70
2023-04-24T02:53:50.593Z,0.85
2023-04-24T02:55:53.263Z,0.77
2023-04-24T02:57:56.107Z,0.70
2023-04-24T02:59:58.764Z,0.70
2023-04-24T03:02:02.769Z,0.80
2023-04-24T03:04:05.636Z,0.88
2023-04-24T03:06:08.967Z,0.60
2023-04-24T03:08:12.381Z,0.90
2023-04-24T03:10:15.085Z,1.10
2023-04-24T03:12:18.752Z,0.75
2023-04-24T03:14:21.446Z,0.70
2023-04-24T03:16:24.254Z,0.80
2023-04-24T03:18:28.290Z,0.80
2023-04-24T03:20:31.106Z,0.70
2023-04-24T03:22:34.732Z,0.63
2023-04-24T03:24:37.439Z,0.70
2023-04-24T03:26:40.105Z,0.70
2023-04-24T03:28:42.752Z,0.85
2023-04-24T03:30:45.638Z,0.90
2023-04-24T03:32:48.406Z,0.80
2023-04-24T03:34:52.425Z,0.90
2023-04-24T03:36:55.092Z,0.82
2023-04-24T03:38:57.755Z,0.60
2023-04-24T03:41:00.425Z,0.90
2023-04-24T03:43:03.340Z,0.77
2023-04-24T03:45:06.770Z,0.77
2023-04-24T03:47:09.385Z,0.90
2023-04-24T03:49:11.975Z,0.73
2023-04-24T03:51:16.007Z,0.90
2023-04-24T03:53:18.645Z,0.80
2023-04-24T03:55:21.211Z,0.73
2023-04-24T03:57:24.013Z,0.70
2023-04-24T03:59:26.641Z,0.70
2023-04-24T04:01:29.331Z,0.90
2023-04-24T04:03:32.254Z,0.70
2023-04-24T04:05:35.150Z,0.73
2023-04-24T04:07:39.236Z,0.63
2023-04-24T04:09:42.251Z,0.82
2023-04-24T04:11:45.260Z,0.90
2023-04-24T04:13:48.838Z,0.90
2023-04-24T04:15:51.595Z,1.00
2023-04-24T04:17:54.392Z,0.85
2023-04-24T04:19:57.307Z,0.70
2023-04-24T04:22:00.121Z,0.80
2023-04-24T04:24:06.366Z,0.80
2023-04-24T04:26:09.896Z,0.80
2023-04-24T04:28:12.833Z,0.90
2023-04-24T04:30:16.028Z,0.73
2023-04-24T04:32:18.790Z,0.88
2023-04-24T04:34:22.970Z,0.98
2023-04-24T04:36:27.510Z,1.17
2023-04-24T04:38:30.966Z,0.93
2023-04-24T04:40:36.233Z,0.80
2023-04-24T04:42:41.427Z,0.90
2023-04-24T04:44:45.845Z,1.50
2023-04-24T04:46:48.593Z,1.20
2023-04-24T04:48:51.224Z,1.50
2023-04-24T04:50:53.880Z,1.15
2023-04-24T04:52:56.790Z,1.40
2023-04-24T04:54:59.407Z,1.20
2023-04-24T04:57:04.417Z,1.08
2023-04-24T04:59:07.245Z,1.17
2023-04-24T05:01:10.008Z,1.30
2023-04-24T05:03:20.747Z,1.30
2023-04-24T05:05:24.166Z,1.33
2023-04-24T05:07:26.817Z,1.52
2023-04-24T05:09:30.452Z,1.25
2023-04-24T05:11:33.146Z,1.45
2023-04-24T05:13:40.374Z,1.30
2023-04-24T05:15:43.879Z,1.33
2023-04-24T05:17:46.705Z,1.40
2023-04-24T05:19:49.430Z,1.50
2023-04-24T05:21:52.081Z,1.27
2023-04-24T05:23:54.752Z,1.42
2023-04-24T05:25:57.368Z,1.30
2023-04-24T05:28:00.134Z,1.13
2023-04-24T05:30:05.582Z,1.20
2023-04-24T05:32:08.294Z,1.20
2023-04-24T05:34:11.186Z,1.23
2023-04-24T05:36:14.189Z,1.30
2023-04-24T05:38:18.856Z,1.42
2023-04-24T05:40:21.714Z,1.45
2023-04-24T05:42:24.431Z,1.42
2023-04-24T05:44:27.094Z,1.23
2023-04-24T05:46:31.232Z,1.63
2023-04-24T05:48:33.833Z,1.60
2023-04-24T05:50:37.189Z,1.30
2023-04-24T05:52:39.998Z,1.67
2023-04-24T05:54:42.986Z,1.50
2023-04-24T05:56:45.756Z,1.48
2023-04-24T05:58:48.586Z,1.33
2023-04-24T06:00:51.297Z,1.50
2023-04-24T06:02:55.576Z,1.63
2023-04-24T06:05:00.022Z,1.60
2023-04-24T06:07:03.849Z,1.50
2023-04-24T06:09:06.494Z,2.00
2023-04-24T06:11:09.103Z,1.83
2023-04-24T06:13:12.254Z,1.58
2023-04-24T06:15:14.855Z,1.77
2023-04-24T06:17:18.005Z,1.42
2023-04-24T06:19:22.094Z,1.70
2023-04-24T06:21:24.749Z,1.27
2023-04-24T06:23:27.552Z,1.30
2023-04-24T06:25:30.598Z,2.05
2023-04-24T06:27:33.263Z,1.70
2023-04-24T06:29:35.951Z,1.52
2023-04-24T06:31:38.760Z,1.60
2023-04-24T06:33:41.481Z,1.45
2023-04-24T06:35:45.682Z,1.55
2023-04-24T06:37:48.599Z,2.00
2023-04-24T06:39:51.226Z,2.05
2023-04-24T06:41:53.844Z,1.60
2023-04-24T06:43:56.577Z,1.42
2023-04-24T06:45:59.776Z,1.30
2023-04-24T06:48:02.670Z,1.80
2023-04-24T06:50:06.124Z,1.48
2023-04-24T06:52:10.359Z,1.25
2023-04-24T06:54:13.109Z,1.67
2023-04-24T06:56:16.167Z,1.70
2023-04-24T06:58:18.849Z,1.25
2023-04-24T07:00:21.845Z,1.40
2023-04-24T07:02:24.914Z,1.40
2023-04-24T07:04:27.989Z,1.40
2023-04-24T07:06:31.629Z,1.30
2023-04-24T07:08:36.811Z,1.60
2023-04-24T07:10:39.606Z,1.50
2023-04-24T07:12:42.403Z,1.27
2023-04-24T07:14:45.163Z,1.60
2023-04-24T07:16:48.514Z,1.40
2023-04-24T07:18:51.153Z,1.65
2023-04-24T07:20:53.840Z,2.00
2023-04-24T07:22:56.469Z,1.67
2023-04-24T07:25:00.419Z,1.30
2023-04-24T07:27:03.325Z,1.58
2023-04-24T07:29:06.015Z,1.63
2023-04-24T07:31:08.926Z,1.20
2023-04-24T07:33:14.058Z,1.52
2023-04-24T07:35:16.875Z,1.40
2023-04-24T07:37:19.665Z,1.35
2023-04-24T07:39:22.343Z,1.10
2023-04-24T07:41:26.457Z,1.25
2023-04-24T07:43:29.164Z,1.20
2023-04-24T07:45:32.211Z,1.10
2023-04-24T07:47:35.437Z,1.13
2023-04-24T07:49:38.271Z,0.98
2023-04-24T07:51:42.270Z,1.75
2023-04-24T07:53:45.713Z,1.20
2023-04-24T07:55:48.466Z,1.10
2023-04-24T07:57:53.129Z,1.20
2023-04-24T07:59:56.179Z,1.23
2023-04-24T08:01:58.803Z,1.13
2023-04-24T08:04:01.623Z,1.20
2023-04-24T08:06:04.808Z,1.38
2023-04-24T08:08:07.452Z,1.25
2023-04-24T08:10:12.169Z,1.10
2023-04-24T08:12:14.823Z,1.00
2023-04-24T08:14:18.844Z,1.02
2023-04-24T08:16:21.551Z,0.95
2023-04-24T08:18:24.606Z,1.08
2023-04-24T08:20:27.383Z,1.15
2023-04-24T08:22:30.436Z,1.35
2023-04-24T08:24:33.071Z,1.27
2023-04-24T08:26:35.915Z,1.20
2023-04-24T08:28:38.680Z,1.13
2023-04-24T08:30:42.709Z,1.35
2023-04-24T08:32:45.715Z,1.40
2023-04-24T08:34:49.667Z,1.10
2023-04-24T08:36:52.800Z,1.30
2023-04-24T08:38:55.451Z,1.25
2023-04-24T08:41:00.485Z,0.90
2023-04-24T08:43:03.111Z,1.15
2023-04-24T08:45:07.249Z,1.15
2023-04-24T08:47:13.502Z,1.08
2023-04-24T08:49:18.221Z,1.00
2023-04-24T08:51:22.298Z,1.02
2023-04-24T08:53:26.820Z,1.08
2023-04-24T08:55:32.520Z,1.10
2023-04-24T08:57:36.841Z,1.00
2023-04-24T08:59:40.529Z,1.30
2023-04-24T09:01:43.805Z,1.40
2023-04-24T09:05:55.326Z,1.10
2023-04-24T09:07:59.066Z,1.10
2023-04-24T09:10:03.009Z,1.20
2023-04-24T09:12:06.046Z,1.30
2023-04-24T09:14:09.374Z,1.30
2023-04-24T09:16:12.266Z,1.30
2023-04-24T09:18:14.996Z,1.25
2023-04-24T09:20:19.156Z,1.20
2023-04-24T09:22:22.343Z,1.20
2023-04-24T09:24:25.184Z,1.20
2023-04-24T09:26:27.983Z,1.13
2023-04-24T09:28:34.649Z,1.40
2023-04-24T09:32:39.840Z,1.00
2023-04-24T09:34:44.931Z,1.30
2023-04-24T09:36:48.947Z,1.20
2023-04-24T09:38:59.490Z,1.02
2023-04-24T09:41:04.248Z,0.90
2023-04-24T09:43:12.843Z,1.20
2023-04-24T09:45:16.214Z,0.90
2023-04-24T09:47:19.156Z,0.90
2023-04-24T09:49:25.258Z,0.70
2023-04-24T09:51:38.517Z,1.00
2023-04-24T09:53:48.046Z,0.75
2023-04-24T09:55:51.473Z,0.90
2023-04-24T09:57:57.439Z,0.90
2023-04-24T10:00:00.156Z,0.95
2023-04-24T10:02:03.002Z,0.90
2023-04-24T10:04:06.505Z,1.10
2023-04-24T10:06:11.114Z,0.90
2023-04-24T10:08:14.378Z,0.82
2023-04-24T10:10:18.721Z,0.85
2023-04-24T10:12:21.588Z,0.90
2023-04-24T10:14:26.251Z,1.00
2023-04-24T10:16:29.748Z,1.00
2023-04-24T10:18:33.567Z,0.80
2023-04-24T10:20:37.964Z,0.90
2023-04-24T10:22:41.733Z,1.00
2023-04-24T10:24:45.809Z,0.95
2023-04-24T10:26:50.229Z,1.10
2023-04-24T10:28:54.176Z,0.93
2023-04-24T10:30:56.980Z,0.95
2023-04-24T10:32:59.639Z,1.00
2023-04-24T10:35:02.402Z,1.00
2023-04-24T10:37:05.664Z,0.82
2023-04-24T10:39:11.725Z,0.93
2023-04-24T10:41:17.396Z,0.80
2023-04-24T10:43:21.596Z,0.80
2023-04-24T10:45:26.127Z,0.80
2023-04-24T10:47:28.824Z,1.15
2023-04-24T10:49:33.165Z,1.00
2023-04-24T10:51:48.210Z,1.08
2023-04-24T10:53:52.229Z,0.82
2023-04-24T10:56:00.765Z,0.90
2023-04-24T10:58:04.800Z,1.15
2023-04-24T11:00:20.871Z,0.90
2023-04-24T11:02:38.275Z,1.00
2023-04-24T11:04:40.972Z,1.20
2023-04-24T11:06:44.299Z,0.90
2023-04-24T11:08:47.956Z,0.95
2023-04-24T11:11:10.292Z,1.00
2023-04-24T11:13:16.051Z,1.10
2023-04-24T11:15:20.910Z,1.02
2023-04-24T11:17:32.768Z,0.93
2023-04-24T11:19:37.650Z,1.02
2023-04-24T11:21:44.788Z,1.00
2023-04-24T11:23:47.823Z,0.75
2023-04-24T11:26:12.254Z,1.05
2023-04-24T11:30:22.415Z,0.73
2023-04-24T11:32:29.747Z,0.90
2023-04-24T11:34:34.361Z,0.93
2023-04-24T11:36:37.780Z,1.00
2023-04-24T11:38:41.183Z,1.08
2023-04-24T11:40:44.049Z,1.40
2023-04-24T11:42:48.450Z,0.98
2023-04-24T11:44:52.105Z,1.10
2023-04-24T11:46:58.089Z,1.13
2023-04-24T11:51:04.276Z,1.00
2023-04-24T11:53:06.936Z,1.00
2023-04-24T11:55:24.391Z,1.52
2023-04-24T11:57:29.932Z,1.20
2023-04-24T11:59:37.787Z,1.25
2023-04-24T12:01:45.598Z,0.90
2023-04-24T12:03:52.169Z,1.00
2023-04-24T12:06:06.240Z,1.20
2023-04-24T12:08:09.067Z,1.08
2023-04-24T12:10:12.345Z,1.10
2023-04-24T12:12:17.219Z,1.05
2023-04-24T12:14:19.907Z,1.10
2023-04-24T12:16:22.758Z,1.20
2023-04-24T12:18:25.835Z,1.00
2023-04-24T12:20:31.814Z,1.10
2023-04-24T12:22:47.751Z,0.93
2023-04-24T12:25:01.879Z,0.93
2023-04-24T12:27:04.735Z,1.50
2023-04-24T12:29:08.914Z,0.95
2023-04-24T12:31:11.598Z,1.10
2023-04-24T12:33:14.288Z,1.40
2023-04-24T12:35:22.504Z,1.35
2023-04-24T12:37:27.651Z,1.40
2023-04-24T12:39:30.277Z,1.33
2023-04-24T12:41:33.008Z,1.38
2023-04-24T12:43:36.191Z,1.08
2023-04-24T12:45:38.791Z,1.00
2023-04-24T12:47:42.311Z,1.20
2023-04-24T12:49:44.954Z,1.00
2023-04-24T12:51:47.666Z,1.00
2023-04-24T12:53:51.648Z,1.10
2023-04-24T12:55:54.388Z,1.27
2023-04-24T12:57:57.095Z,1.17
2023-04-24T13:00:00.852Z,1.20
2023-04-24T13:02:03.770Z,1.08
2023-04-24T13:04:07.305Z,0.90
2023-04-24T13:06:13.006Z,1.00
2023-04-24T13:08:15.721Z,0.90
2023-04-24T13:10:20.095Z,1.00
2023-04-24T13:12:24.787Z,1.17
2023-04-24T13:14:27.611Z,0.90
2023-04-24T13:16:30.279Z,1.10
2023-04-24T13:18:32.960Z,1.33
2023-04-24T13:20:36.498Z,1.10
2023-04-24T13:22:39.167Z,1.30
2023-04-24T13:24:42.433Z,1.02
2023-04-24T13:26:46.509Z,1.10
2023-04-24T13:28:49.124Z,1.30
2023-04-24T13:30:52.358Z,1.15
2023-04-24T13:32:55.337Z,1.40
2023-04-24T13:34:58.849Z,1.30
2023-04-24T13:37:01.587Z,1.10
2023-04-24T13:39:05.357Z,1.30
2023-04-24T13:41:08.068Z,1.17
2023-04-24T13:43:12.027Z,1.50
2023-04-24T13:45:24.699Z,1.10
2023-04-24T13:47:28.220Z,1.27
2023-04-24T13:49:30.927Z,1.00
2023-04-24T13:51:34.290Z,1.40
2023-04-24T13:53:39.283Z,1.30
2023-04-24T13:55:42.004Z,1.27
2023-04-24T13:57:44.853Z,1.20
2023-04-24T13:59:48.876Z,1.30
2023-04-24T14:01:51.601Z,1.05
2023-04-24T14:03:54.884Z,1.20
2023-04-24T14:05:58.521Z,1.30
2023-04-24T14:08:01.193Z,1.30
2023-04-24T14:10:03.965Z,1.50
2023-04-24T14:12:07.935Z,1.52
2023-04-24T14:14:10.727Z,1.40
2023-04-24T14:16:15.145Z,1.20
2023-04-24T14:18:18.314Z,1.30
2023-04-24T14:20:21.338Z,1.40
2023-04-24T14:22:24.014Z,1.30
2023-04-24T14:24:26.702Z,2.00
2023-04-24T14:26:29.407Z,1.20
2023-04-24T14:28:32.286Z,1.40
2023-04-24T14:30:35.062Z,1.25
2023-04-24T14:32:40.468Z,1.45
2023-04-24T14:34:43.208Z,1.52
2023-04-24T14:36:45.971Z,1.70
2023-04-24T14:38:48.703Z,1.45
2023-04-24T14:42:58.192Z,1.70
2023-04-24T14:45:00.990Z,1.35
2023-04-24T14:47:03.806Z,1.60
2023-04-24T14:49:10.525Z,1.50
2023-04-24T14:51:13.306Z,1.60
2023-04-24T14:53:17.340Z,1.38
2023-04-24T14:55:20.180Z,1.92
2023-04-24T14:57:22.933Z,1.95
2023-04-24T14:59:25.672Z,1.15
2023-04-24T15:01:28.305Z,1.38
2023-04-24T15:03:32.034Z,1.30
2023-04-24T15:05:36.839Z,1.38
2023-04-24T15:07:39.930Z,1.48
2023-04-24T15:09:44.009Z,1.88
2023-04-24T15:11:46.638Z,1.50
2023-04-24T15:13:49.454Z,1.50
2023-04-24T15:15:52.247Z,1.60
2023-04-24T15:17:54.930Z,1.13
2023-04-24T15:19:57.929Z,1.63
2023-04-24T15:22:01.996Z,1.33
2023-04-24T15:24:04.950Z,1.80
2023-04-24T15:26:07.651Z,1.55
2023-04-24T15:28:11.614Z,1.70
2023-04-24T15:30:15.276Z,1.40
2023-04-24T15:32:18.079Z,1.50
2023-04-24T15:34:21.033Z,1.27
2023-04-24T15:36:23.802Z,1.20
2023-04-24T15:38:27.897Z,1.35
2023-04-24T15:40:30.530Z,1.27
2023-04-24T15:42:33.248Z,1.20
2023-04-24T15:44:36.251Z,1.30
2023-04-24T15:46:39.026Z,2.38
2023-04-24T15:48:43.800Z,1.30
2023-04-24T15:50:46.512Z,1.50
2023-04-24T15:52:49.234Z,1.40
2023-04-24T15:54:53.291Z,1.40
2023-04-24T15:56:56.015Z,1.40
2023-04-24T15:58:59.089Z,1.42
2023-04-24T16:01:01.880Z,1.40
2023-04-24T16:03:05.378Z,1.75
2023-04-24T16:05:09.978Z,1.33
2023-04-24T16:07:12.601Z,1.50
2023-04-24T16:09:15.309Z,1.75
2023-04-24T16:11:19.462Z,1.20
2023-04-24T16:13:22.217Z,1.60
2023-04-24T16:15:24.910Z,1.65
2023-04-24T16:17:27.528Z,1.70
2023-04-24T16:19:30.333Z,1.75
2023-04-24T16:21:32.994Z,2.15
2023-04-24T16:23:36.324Z,1.70
2023-04-24T16:25:39.014Z,1.50
2023-04-24T16:27:43.094Z,1.45
2023-04-24T16:29:46.164Z,1.45
2023-04-24T16:31:49.116Z,1.65
2023-04-24T16:33:51.824Z,1.80
2023-04-24T16:35:54.569Z,1.38
2023-04-24T16:37:57.280Z,1.60
2023-04-24T16:40:00.179Z,1.40
2023-04-24T16:42:02.938Z,1.65
2023-04-24T16:44:07.074Z,1.50
2023-04-24T16:46:09.814Z,1.80
2023-04-24T16:48:12.486Z,1.33
2023-04-24T16:50:15.203Z,1.55
2023-04-24T16:52:17.964Z,1.60
2023-04-24T16:54:20.669Z,1.70
2023-04-24T16:56:23.294Z,1.40
2023-04-24T16:58:26.099Z,1.85
2023-04-24T17:00:30.145Z,1.40
2023-04-24T17:02:32.998Z,1.20
2023-04-24T17:04:36.503Z,1.10
2023-04-24T17:06:39.310Z,1.27
2023-04-24T17:08:41.939Z,1.20
2023-04-24T17:10:44.626Z,1.10
2023-04-24T17:12:47.277Z,1.10
2023-04-24T17:14:49.896Z,1.58
2023-04-24T17:16:54.351Z,1.10
2023-04-24T17:18:57.098Z,0.93
2023-04-24T17:20:59.795Z,1.52
2023-04-24T17:23:02.553Z,1.48
2023-04-24T17:25:05.973Z,0.98
2023-04-24T17:27:14.955Z,1.30
2023-04-24T17:29:18.225Z,1.05
2023-04-24T17:31:21.061Z,1.00
2023-04-24T17:33:25.116Z,1.10
2023-04-24T17:35:27.791Z,1.30
2023-04-24T17:37:30.615Z,1.10
2023-04-24T17:39:33.303Z,1.00
2023-04-24T17:41:35.936Z,0.98
2023-04-24T17:43:38.513Z,1.00
2023-04-24T17:45:41.336Z,1.10
2023-04-24T17:47:44.100Z,1.00
2023-04-24T17:49:48.222Z,1.00
2023-04-24T17:51:50.943Z,1.15
2023-04-24T17:53:53.628Z,1.42
2023-04-24T17:55:59.208Z,1.10
2023-04-24T17:58:02.987Z,1.13
2023-04-24T18:00:07.052Z,1.17
2023-04-24T18:02:09.893Z,1.20
2023-04-24T18:04:12.930Z,1.10
2023-04-24T18:06:18.737Z,1.20
2023-04-24T18:08:21.346Z,1.30
2023-04-24T18:10:24.082Z,1.10
2023-04-24T18:12:27.256Z,1.40
2023-04-24T18:14:30.262Z,1.20
2023-04-24T18:16:32.977Z,1.00
2023-04-24T18:18:35.739Z,1.20
2023-04-24T18:20:38.505Z,1.73
2023-04-24T18:22:43.101Z,1.52
2023-04-24T18:24:45.809Z,1.30
2023-04-24T18:26:48.433Z,1.13
2023-04-24T18:28:51.177Z,1.40
2023-04-24T18:30:53.913Z,1.20
2023-04-24T18:32:56.646Z,1.50
2023-04-24T18:34:59.376Z,1.33
2023-04-24T18:37:01.976Z,1.50
2023-04-24T18:39:06.081Z,1.58
2023-04-24T18:41:08.825Z,1.48
2023-04-24T18:43:11.517Z,1.52
2023-04-24T18:45:15.326Z,1.67
2023-04-24T18:47:18.205Z,1.33
2023-04-24T18:49:20.868Z,1.80
2023-04-24T18:51:23.609Z,1.45
2023-04-24T18:53:26.264Z,1.30
2023-04-24T18:55:30.369Z,1.67
2023-04-24T18:57:33.216Z,1.58
2023-04-24T18:59:35.880Z,1.50
2023-04-24T19:01:39.203Z,1.70
2023-04-24T19:03:41.860Z,1.60
2023-04-24T19:05:44.619Z,1.60
2023-04-24T19:07:47.288Z,1.60
2023-04-24T19:09:49.925Z,1.42
2023-04-24T19:11:53.968Z,1.20
2023-04-24T19:13:57.025Z,1.40
2023-04-24T19:15:59.722Z,2.15
2023-04-24T19:18:02.404Z,1.40
2023-04-24T19:20:05.634Z,1.38
2023-04-24T19:22:08.544Z,1.30
2023-04-24T19:24:11.779Z,1.60
2023-04-24T19:26:14.626Z,1.33
2023-04-24T19:28:18.699Z,1.45
2023-04-24T19:30:21.509Z,1.50
2023-04-24T19:32:24.364Z,1.50
2023-04-24T19:34:27.399Z,1.58
2023-04-24T19:36:32.381Z,2.10
2023-04-24T19:38:35.170Z,2.22
2023-04-24T19:40:37.959Z,2.50
2023-04-24T19:42:44.404Z,2.10
2023-04-24T19:44:48.782Z,2.08
2023-04-24T19:46:51.582Z,1.80
2023-04-24T19:48:54.347Z,1.70
2023-04-24T19:50:57.075Z,1.40
2023-04-24T19:52:59.939Z,1.60
2023-04-24T19:55:02.697Z,1.40
2023-04-24T19:57:05.543Z,1.40
2023-04-24T19:59:08.781Z,1.25
2023-04-24T20:01:12.836Z,1.55
2023-04-24T20:03:25.534Z,1.20
2023-04-24T20:05:35.266Z,1.10
2023-04-24T20:07:37.887Z,1.40
2023-04-24T20:09:40.527Z,1.25
2023-04-24T20:11:43.178Z,1.10
2023-04-24T20:13:45.894Z,1.60
2023-04-24T20:15:48.582Z,1.27
2023-04-24T20:17:52.584Z,1.30
2023-04-24T20:19:55.388Z,1.38
2023-04-24T20:21:58.219Z,1.27
2023-04-24T20:24:00.866Z,1.15
2023-04-24T20:26:04.826Z,1.17
2023-04-24T20:28:07.620Z,1.33
2023-04-24T20:30:13.239Z,1.65
2023-04-24T20:32:16.228Z,1.50
2023-04-24T20:34:20.339Z,1.33
2023-04-24T20:36:22.990Z,1.50
2023-04-24T20:38:25.660Z,1.50
2023-04-24T20:40:29.825Z,1.70
2023-04-24T20:42:34.216Z,1.45
2023-04-24T20:44:36.873Z,1.60
2023-04-24T20:46:39.821Z,1.60
2023-04-24T20:48:42.599Z,1.48
2023-04-24T20:50:46.598Z,1.70
2023-04-24T20:52:49.391Z,1.60
2023-04-24T20:54:52.010Z,1.27
2023-04-24T20:56:54.735Z,1.40
2023-04-24T20:58:57.678Z,1.88
2023-04-24T21:01:00.535Z,1.63
2023-04-24T21:03:03.571Z,1.52
2023-04-24T21:05:07.191Z,1.42
2023-04-24T21:07:12.857Z,1.60
2023-04-24T21:09:15.536Z,1.50
2023-04-24T21:11:18.283Z,1.70
2023-04-24T21:13:20.920Z,1.50
2023-04-24T21:15:23.600Z,1.60
2023-04-24T21:17:26.440Z,1.70
2023-04-24T21:19:29.098Z,2.00
2023-04-24T21:21:32.055Z,1.90
2023-04-24T21:23:36.190Z,1.65
2023-04-24T21:25:39.412Z,1.80
2023-04-24T21:27:42.190Z,1.85
2023-04-24T21:29:44.979Z,2.00
2023-04-24T21:31:47.724Z,1.90
2023-04-24T21:33:50.940Z,2.00
2023-04-24T21:35:53.833Z,2.00
2023-04-24T21:37:56.596Z,2.47
2023-04-24T21:40:00.753Z,1.85
2023-04-24T21:42:03.930Z,2.00
2023-04-24T21:44:06.702Z,1.95
2023-04-24T21:46:09.501Z,1.88
2023-04-24T21:48:12.239Z,2.22
2023-04-24T21:50:14.888Z,1.85
2023-04-24T21:52:17.522Z,2.00
2023-04-24T21:54:20.710Z,2.03
2023-04-24T21:56:24.779Z,2.00
2023-04-24T21:58:27.982Z,2.25
2023-04-24T22:00:30.694Z,2.30
2023-04-24T22:02:34.003Z,2.05
2023-04-24T22:04:36.899Z,2.00
2023-04-24T22:06:39.709Z,2.17
2023-04-24T22:08:43.751Z,2.03
2023-04-24T22:10:46.738Z,1.77
2023-04-24T22:12:50.824Z,2.10
2023-04-24T22:14:53.457Z,2.30
2023-04-24T22:16:57.031Z,2.10
2023-04-24T22:18:59.733Z,1.98
2023-04-24T22:21:02.410Z,2.50
2023-04-24T22:23:05.828Z,2.50
2023-04-24T22:25:09.916Z,2.40
2023-04-24T22:27:12.540Z,2.50
2023-04-24T22:29:16.517Z,2.50
2023-04-24T22:31:19.253Z,2.40
2023-04-24T22:33:21.964Z,2.42
2023-04-24T22:35:24.644Z,2.70
2023-04-24T22:37:27.790Z,2.53
2023-04-24T22:39:30.534Z,2.67
2023-04-24T22:41:33.213Z,2.65
2023-04-24T22:43:36.311Z,2.58
2023-04-24T22:45:41.127Z,2.60
2023-04-24T22:47:44.122Z,2.67
2023-04-24T22:49:47.680Z,2.70
2023-04-24T22:51:51.795Z,3.22
2023-04-24T22:53:56.314Z,2.47
2023-04-24T22:55:59.036Z,2.35
2023-04-24T22:58:02.510Z,2.80
2023-04-24T23:00:09.193Z,2.70
2023-04-24T23:04:16.275Z,2.25
2023-04-24T23:06:18.971Z,2.38
2023-04-24T23:08:21.626Z,2.20
2023-04-24T23:10:24.414Z,2.45
2023-04-24T23:12:27.084Z,2.25
2023-04-24T23:14:29.850Z,3.00
2023-04-24T23:16:32.622Z,2.70
2023-04-24T23:18:36.739Z,2.42
2023-04-24T23:20:39.521Z,2.67
2023-04-24T23:22:42.483Z,2.80
2023-04-24T23:24:45.725Z,2.53
2023-04-24T23:26:48.375Z,3.22
2023-04-24T23:28:51.335Z,2.40
2023-04-24T23:30:54.051Z,2.50
2023-04-24T23:32:56.764Z,2.80
2023-04-24T23:35:00.762Z,2.70
2023-04-24T23:37:03.939Z,2.60
2023-04-24T23:39:07.082Z,2.40
2023-04-24T23:41:09.790Z,2.63
2023-04-24T23:43:12.666Z,2.60
2023-04-24T23:45:15.705Z,2.42
2023-04-24T23:47:18.359Z,2.60
2023-04-24T23:49:21.418Z,2.67
2023-04-24T23:51:25.756Z,2.22
2023-04-24T23:53:28.355Z,2.35
2023-04-24T23:55:31.300Z,2.13
2023-04-24T23:57:34.054Z,2.13
2023-04-24T23:59:36.711Z,2.00
